C6534 KEFD-KEFD

Flight info

Callsign C6534
Flight time 2h 14m
Altitude 2000
Route VFR
Aircraft AS65/L-VGD/C

Departure

Time 2026-05-04 19:55
Airport Ellington Airport (KEFD)

Arrival

Time 2026-05-04 22:09
Airport Ellington Airport (KEFD)
Time Latitude Longitude Altitude Speed Heading
2026-05-04 19:52 29.60994 -95.16785 38 ft 0 kts 179°
2026-05-04 19:54 29.60989 -95.16786 62 ft 1 kts 163°
2026-05-04 19:54 29.60890 -95.16739 314 ft 33 kts 168°
2026-05-04 19:54 29.60550 -95.16565 543 ft 75 kts 160°
2026-05-04 19:55 29.59993 -95.16305 689 ft 86 kts 161°
2026-05-04 19:55 29.59374 -95.16063 638 ft 109 kts 161°
2026-05-04 19:55 29.58559 -95.15745 617 ft 135 kts 162°
2026-05-04 19:55 29.57692 -95.15390 643 ft 128 kts 163°
2026-05-04 19:56 29.56860 -95.15043 631 ft 130 kts 163°
2026-05-04 19:56 29.56038 -95.14667 637 ft 133 kts 162°
2026-05-04 19:56 29.55208 -95.14266 635 ft 130 kts 162°
2026-05-04 19:56 29.54376 -95.13877 641 ft 125 kts 164°
2026-05-04 19:57 29.53583 -95.13495 633 ft 122 kts 162°
2026-05-04 19:57 29.52846 -95.12986 638 ft 128 kts 145°
2026-05-04 19:57 29.52208 -95.12283 644 ft 127 kts 138°
2026-05-04 19:57 29.51601 -95.11523 642 ft 133 kts 139°
2026-05-04 19:58 29.50977 -95.10736 647 ft 132 kts 141°
2026-05-04 19:58 29.50354 -95.09975 645 ft 131 kts 141°
2026-05-04 19:58 29.49719 -95.09214 650 ft 131 kts 140°
2026-05-04 19:58 29.49089 -95.08469 646 ft 129 kts 137°
2026-05-04 19:59 29.48460 -95.07718 696 ft 132 kts 136°
2026-05-04 19:59 29.47844 -95.06969 858 ft 127 kts 141°
2026-05-04 19:59 29.47220 -95.06225 953 ft 130 kts 142°
2026-05-04 19:59 29.46588 -95.05484 990 ft 132 kts 141°
2026-05-04 20:00 29.45940 -95.04727 1009 ft 132 kts 142°
2026-05-04 20:00 29.45314 -95.04001 1011 ft 133 kts 142°
2026-05-04 20:00 29.44664 -95.03245 1023 ft 133 kts 142°
2026-05-04 20:00 29.44026 -95.02507 1015 ft 131 kts 143°
2026-05-04 20:01 29.43383 -95.01757 1014 ft 133 kts 141°
2026-05-04 20:01 29.42732 -95.00989 1024 ft 135 kts 141°
2026-05-04 20:01 29.42078 -95.00219 1021 ft 134 kts 142°
2026-05-04 20:01 29.41422 -94.99449 1018 ft 136 kts 141°
2026-05-04 20:02 29.40761 -94.98668 1022 ft 137 kts 141°
2026-05-04 20:02 29.40110 -94.97903 1029 ft 130 kts 142°
2026-05-04 20:02 29.39478 -94.97165 1021 ft 130 kts 142°
2026-05-04 20:02 29.38846 -94.96424 1021 ft 130 kts 144°
2026-05-04 20:03 29.38206 -94.95672 1026 ft 133 kts 143°
2026-05-04 20:03 29.37562 -94.94920 1018 ft 132 kts 143°
2026-05-04 20:03 29.36913 -94.94158 1017 ft 134 kts 142°
2026-05-04 20:03 29.36269 -94.93394 1017 ft 136 kts 142°
2026-05-04 20:04 29.35604 -94.92604 1027 ft 138 kts 141°
2026-05-04 20:04 29.34944 -94.91829 1025 ft 135 kts 141°
2026-05-04 20:04 29.34290 -94.91062 1025 ft 134 kts 141°
2026-05-04 20:04 29.33638 -94.90304 1033 ft 133 kts 142°
2026-05-04 20:05 29.32993 -94.89563 1034 ft 128 kts 143°
2026-05-04 20:05 29.32361 -94.88833 1022 ft 130 kts 143°
2026-05-04 20:05 29.31721 -94.88085 1024 ft 133 kts 142°
2026-05-04 20:05 29.31081 -94.87331 1021 ft 132 kts 141°
2026-05-04 20:06 29.30444 -94.86575 1022 ft 133 kts 139°
2026-05-04 20:06 29.29803 -94.85818 1028 ft 131 kts 140°
2026-05-04 20:06 29.29160 -94.85066 1027 ft 134 kts 141°
2026-05-04 20:06 29.28505 -94.84304 1032 ft 133 kts 142°
2026-05-04 20:07 29.27850 -94.83545 1024 ft 136 kts 141°
2026-05-04 20:07 29.27192 -94.82776 1026 ft 135 kts 142°
2026-05-04 20:07 29.26535 -94.82009 1028 ft 134 kts 142°
2026-05-04 20:07 29.25889 -94.81257 1026 ft 131 kts 141°
2026-05-04 20:08 29.25246 -94.80503 1023 ft 135 kts 139°
2026-05-04 20:08 29.24608 -94.79753 1029 ft 132 kts 140°
2026-05-04 20:08 29.23969 -94.79007 1023 ft 132 kts 139°
2026-05-04 20:08 29.23312 -94.78236 1025 ft 138 kts 139°
2026-05-04 20:09 29.22636 -94.77445 1026 ft 140 kts 140°
2026-05-04 20:09 29.21958 -94.76653 1029 ft 138 kts 140°
2026-05-04 20:09 29.21283 -94.75876 1031 ft 137 kts 140°
2026-05-04 20:09 29.20608 -94.75112 1028 ft 136 kts 140°
2026-05-04 20:10 29.19944 -94.74359 1028 ft 133 kts 141°
2026-05-04 20:10 29.19288 -94.73610 1024 ft 134 kts 141°
2026-05-04 20:10 29.18635 -94.72858 1025 ft 132 kts 142°
2026-05-04 20:10 29.17988 -94.72106 1019 ft 133 kts 142°
2026-05-04 20:11 29.17345 -94.71349 1021 ft 133 kts 140°
2026-05-04 20:11 29.16687 -94.70569 1023 ft 137 kts 140°
2026-05-04 20:11 29.16030 -94.69795 1023 ft 135 kts 140°
2026-05-04 20:11 29.15372 -94.69026 1027 ft 135 kts 142°
2026-05-04 20:12 29.14711 -94.68261 1019 ft 135 kts 143°
2026-05-04 20:12 29.14055 -94.67506 1016 ft 136 kts 142°
2026-05-04 20:12 29.13384 -94.66730 1019 ft 137 kts 143°
2026-05-04 20:12 29.12722 -94.65965 1012 ft 134 kts 142°
2026-05-04 20:13 29.12072 -94.65206 1018 ft 132 kts 141°
2026-05-04 20:13 29.11428 -94.64456 1016 ft 133 kts 142°
2026-05-04 20:13 29.10781 -94.63706 1016 ft 133 kts 141°
2026-05-04 20:13 29.10130 -94.62949 1018 ft 134 kts 141°
2026-05-04 20:14 29.09477 -94.62193 1011 ft 135 kts 141°
2026-05-04 20:14 29.08813 -94.61415 1014 ft 138 kts 141°
2026-05-04 20:14 29.08152 -94.60638 1017 ft 135 kts 141°
2026-05-04 20:14 29.07497 -94.59870 1012 ft 136 kts 141°
2026-05-04 20:15 29.06833 -94.59091 1017 ft 136 kts 141°
2026-05-04 20:15 29.06172 -94.58323 1021 ft 134 kts 141°
2026-05-04 20:15 29.05516 -94.57570 1015 ft 134 kts 141°
2026-05-04 20:15 29.04851 -94.56803 1010 ft 137 kts 141°
2026-05-04 20:16 29.04195 -94.56045 1012 ft 134 kts 141°
2026-05-04 20:16 29.03551 -94.55301 1005 ft 136 kts 140°
2026-05-04 20:16 29.02885 -94.54523 1007 ft 137 kts 141°
2026-05-04 20:16 29.02219 -94.53743 1012 ft 137 kts 141°
2026-05-04 20:17 29.01558 -94.52973 1010 ft 135 kts 140°
2026-05-04 20:17 29.00896 -94.52201 1007 ft 138 kts 139°
2026-05-04 20:17 29.00231 -94.51425 1013 ft 135 kts 140°
2026-05-04 20:17 28.99573 -94.50667 940 ft 135 kts 140°
2026-05-04 20:18 28.98906 -94.49917 822 ft 133 kts 142°
2026-05-04 20:18 28.98292 -94.49240 726 ft 110 kts 143°
2026-05-04 20:18 28.97794 -94.48696 568 ft 91 kts 144°
2026-05-04 20:18 28.97367 -94.48225 474 ft 84 kts 145°
2026-05-04 20:19 28.96946 -94.47754 429 ft 84 kts 143°
2026-05-04 20:19 28.96540 -94.47287 424 ft 84 kts 141°
2026-05-04 20:19 28.96117 -94.46786 418 ft 88 kts 141°
2026-05-04 20:19 28.95703 -94.46285 414 ft 86 kts 141°
2026-05-04 20:20 28.95292 -94.45788 411 ft 86 kts 140°
2026-05-04 20:20 28.94886 -94.45299 410 ft 85 kts 140°
2026-05-04 20:20 28.94502 -94.44767 418 ft 90 kts 127°
2026-05-04 20:20 28.94362 -94.44062 411 ft 95 kts 98°
2026-05-04 20:21 28.94612 -94.43339 404 ft 103 kts 56°
2026-05-04 20:21 28.95246 -94.42932 413 ft 110 kts 16°
2026-05-04 20:21 28.96515 -94.43616 406 ft 103 kts 293°
2026-05-04 20:22 28.96596 -94.44378 412 ft 94 kts 253°
2026-05-04 20:22 28.96317 -94.45014 409 ft 88 kts 222°
2026-05-04 20:22 28.95875 -94.45438 412 ft 80 kts 210°
2026-05-04 20:22 28.95402 -94.45775 405 ft 82 kts 208°
2026-05-04 20:23 28.94851 -94.45933 413 ft 82 kts 180°
2026-05-04 20:23 28.94491 -94.45871 419 ft 78 kts 171°
2026-05-04 20:23 28.93980 -94.45630 410 ft 83 kts 147°
2026-05-04 20:23 28.93634 -94.44838 411 ft 90 kts 105°
2026-05-04 20:24 28.93591 -94.44128 414 ft 90 kts 103°
2026-05-04 20:24 28.93599 -94.43401 408 ft 95 kts 88°
2026-05-04 20:24 28.93968 -94.42737 406 ft 105 kts 45°
2026-05-04 20:24 28.94399 -94.42489 408 ft 106 kts 21°
2026-05-04 20:25 28.95401 -94.42404 406 ft 112 kts 349°
2026-05-04 20:25 28.95856 -94.42647 410 ft 108 kts 322°
2026-05-04 20:25 28.96252 -94.43319 406 ft 99 kts 282°
2026-05-04 20:25 28.96282 -94.44082 410 ft 95 kts 264°
2026-05-04 20:26 28.96270 -94.44844 409 ft 97 kts 263°
2026-05-04 20:26 28.96250 -94.45601 407 ft 93 kts 252°
2026-05-04 20:26 28.95987 -94.46223 407 ft 83 kts 223°
2026-05-04 20:26 28.95494 -94.46567 404 ft 86 kts 194°
2026-05-04 20:27 28.94913 -94.46613 420 ft 80 kts 184°
2026-05-04 20:27 28.94352 -94.46646 407 ft 83 kts 183°
2026-05-04 20:27 28.93766 -94.46669 411 ft 82 kts 181°
2026-05-04 20:27 28.93241 -94.46578 403 ft 75 kts 158°
2026-05-04 20:28 28.92864 -94.46145 401 ft 85 kts 126°
2026-05-04 20:28 28.92730 -94.45452 414 ft 89 kts 108°
2026-05-04 20:28 28.92695 -94.44770 408 ft 86 kts 103°
2026-05-04 20:28 28.92689 -94.44082 408 ft 88 kts 101°
2026-05-04 20:29 28.92693 -94.43382 408 ft 91 kts 99°
2026-05-04 20:29 28.92716 -94.42655 407 ft 94 kts 89°
2026-05-04 20:29 28.93059 -94.41988 407 ft 104 kts 49°
2026-05-04 20:29 28.93737 -94.41646 410 ft 107 kts 14°
2026-05-04 20:30 28.94478 -94.41549 409 ft 109 kts
2026-05-04 20:30 28.95236 -94.41546 410 ft 108 kts
2026-05-04 20:30 28.95975 -94.41578 404 ft 107 kts 357°
2026-05-04 20:30 28.96684 -94.41922 408 ft 114 kts 317°
2026-05-04 20:31 28.97079 -94.42655 409 ft 106 kts 277°
2026-05-04 20:31 28.97158 -94.43452 418 ft 94 kts 264°
2026-05-04 20:31 28.97183 -94.44174 404 ft 90 kts 262°
2026-05-04 20:31 28.97182 -94.44873 407 ft 85 kts 262°
2026-05-04 20:32 28.97170 -94.45548 403 ft 86 kts 262°
2026-05-04 20:32 28.97153 -94.46232 406 ft 86 kts 262°
2026-05-04 20:32 28.97079 -94.46906 403 ft 84 kts 242°
2026-05-04 20:32 28.96742 -94.47387 408 ft 74 kts 211°
2026-05-04 20:33 28.96281 -94.47559 402 ft 70 kts 185°
2026-05-04 20:33 28.95787 -94.47583 404 ft 73 kts 183°
2026-05-04 20:33 28.95282 -94.47607 415 ft 69 kts 183°
2026-05-04 20:33 28.94795 -94.47634 405 ft 73 kts 182°
2026-05-04 20:34 28.94279 -94.47650 405 ft 74 kts 181°
2026-05-04 20:34 28.93804 -94.47660 405 ft 66 kts 178°
2026-05-04 20:34 28.93343 -94.47662 401 ft 67 kts 180°
2026-05-04 20:34 28.92846 -94.47656 403 ft 73 kts 180°
2026-05-04 20:35 28.92354 -94.47578 400 ft 70 kts 160°
2026-05-04 20:35 28.92012 -94.47203 401 ft 72 kts 129°
2026-05-04 20:35 28.91896 -94.46618 403 ft 77 kts 108°
2026-05-04 20:35 28.91865 -94.46004 405 ft 78 kts 102°
2026-05-04 20:36 28.91861 -94.45364 410 ft 82 kts 101°
2026-05-04 20:36 28.91865 -94.44709 407 ft 83 kts 98°
2026-05-04 20:36 28.91870 -94.44054 407 ft 83 kts 101°
2026-05-04 20:36 28.91876 -94.43424 407 ft 76 kts 103°
2026-05-04 20:37 28.91881 -94.42819 404 ft 77 kts 103°
2026-05-04 20:37 28.91880 -94.42202 402 ft 79 kts 103°
2026-05-04 20:37 28.91892 -94.41553 400 ft 86 kts 89°
2026-05-04 20:37 28.92195 -94.40942 402 ft 94 kts 50°
2026-05-04 20:38 28.92803 -94.40623 404 ft 99 kts 17°
2026-05-04 20:38 28.93481 -94.40536 402 ft 98 kts
2026-05-04 20:38 28.94172 -94.40551 402 ft 101 kts 359°
2026-05-04 20:38 28.94854 -94.40593 402 ft 95 kts 359°
2026-05-04 20:39 28.95518 -94.40638 397 ft 99 kts 359°
2026-05-04 20:39 28.96223 -94.40680 403 ft 103 kts
2026-05-04 20:39 28.96918 -94.40707 411 ft 99 kts 357°
2026-05-04 20:39 28.97548 -94.41010 399 ft 102 kts 318°
2026-05-04 20:40 28.97865 -94.41671 401 ft 91 kts 275°
2026-05-04 20:40 28.97906 -94.42361 418 ft 92 kts 265°
2026-05-04 20:40 28.97937 -94.43080 419 ft 88 kts 265°
2026-05-04 20:40 28.97964 -94.43768 408 ft 87 kts 265°
2026-05-04 20:41 28.97977 -94.44456 399 ft 87 kts 265°
2026-05-04 20:41 28.97974 -94.45172 402 ft 92 kts 261°
2026-05-04 20:41 28.97969 -94.45901 403 ft 91 kts 262°
2026-05-04 20:41 28.97968 -94.46617 405 ft 87 kts 262°
2026-05-04 20:42 28.97969 -94.47299 399 ft 86 kts 264°
2026-05-04 20:42 28.97866 -94.47959 401 ft 83 kts 236°
2026-05-04 20:42 28.97486 -94.48397 404 ft 75 kts 203°
2026-05-04 20:42 28.97000 -94.48507 408 ft 71 kts 184°
2026-05-04 20:43 28.96504 -94.48537 397 ft 74 kts 185°
2026-05-04 20:43 28.95977 -94.48561 402 ft 76 kts 183°
2026-05-04 20:43 28.95464 -94.48581 411 ft 71 kts 183°
2026-05-04 20:43 28.94956 -94.48602 401 ft 74 kts 182°
2026-05-04 20:44 28.94434 -94.48611 403 ft 73 kts 180°
2026-05-04 20:44 28.93949 -94.48617 400 ft 68 kts 178°
2026-05-04 20:44 28.93474 -94.48615 397 ft 71 kts 180°
2026-05-04 20:44 28.92964 -94.48607 404 ft 73 kts 180°
2026-05-04 20:45 28.92471 -94.48602 400 ft 68 kts 178°
2026-05-04 20:45 28.91997 -94.48596 397 ft 68 kts 179°
2026-05-04 20:45 28.91526 -94.48489 402 ft 72 kts 157°
2026-05-04 20:45 28.91171 -94.48060 398 ft 80 kts 121°
2026-05-04 20:46 28.91058 -94.47430 406 ft 81 kts 105°
2026-05-04 20:46 28.91021 -94.46792 402 ft 81 kts 103°
2026-05-04 20:46 28.91012 -94.46150 394 ft 81 kts 103°
2026-05-04 20:46 28.91020 -94.45511 399 ft 81 kts 101°
2026-05-04 20:47 28.91032 -94.44876 398 ft 78 kts 101°
2026-05-04 20:47 28.91045 -94.44261 397 ft 81 kts 98°
2026-05-04 20:47 28.91051 -94.43605 400 ft 83 kts 97°
2026-05-04 20:47 28.91053 -94.42948 403 ft 82 kts 99°
2026-05-04 20:48 28.91051 -94.42301 402 ft 79 kts 102°
2026-05-04 20:48 28.91051 -94.41690 399 ft 77 kts 104°
2026-05-04 20:48 28.91048 -94.41072 400 ft 79 kts 105°
2026-05-04 20:48 28.91093 -94.40427 397 ft 88 kts 82°
2026-05-04 20:49 28.91479 -94.39864 402 ft 95 kts 39°
2026-05-04 20:49 28.92111 -94.39617 400 ft 98 kts 13°
2026-05-04 20:49 28.92783 -94.39565 396 ft 96 kts
2026-05-04 20:49 28.93476 -94.39598 397 ft 102 kts 358°
2026-05-04 20:50 28.94168 -94.39647 399 ft 96 kts 359°
2026-05-04 20:50 28.94834 -94.39691 394 ft 97 kts 359°
2026-05-04 20:50 28.95517 -94.39730 396 ft 102 kts
2026-05-04 20:50 28.96222 -94.39753 401 ft 98 kts
2026-05-04 20:51 28.96916 -94.39761 398 ft 101 kts
2026-05-04 20:51 28.97602 -94.39764 394 ft 97 kts
2026-05-04 20:51 28.98233 -94.39929 397 ft 91 kts 331°
2026-05-04 20:51 28.98635 -94.40449 393 ft 90 kts 289°
2026-05-04 20:52 28.98722 -94.41131 398 ft 86 kts 269°
2026-05-04 20:52 28.98750 -94.41818 399 ft 87 kts 270°
2026-05-04 20:52 28.98777 -94.42510 397 ft 87 kts 267°
2026-05-04 20:52 28.98792 -94.43209 393 ft 89 kts 265°
2026-05-04 20:53 28.98797 -94.43909 395 ft 88 kts 265°
2026-05-04 20:53 28.98797 -94.44628 404 ft 91 kts 262°
2026-05-04 20:53 28.98808 -94.45324 402 ft 85 kts 265°
2026-05-04 20:53 28.98820 -94.45998 397 ft 85 kts 264°
2026-05-04 20:54 28.98822 -94.46678 389 ft 87 kts 262°
2026-05-04 20:54 28.98811 -94.47397 396 ft 92 kts 258°
2026-05-04 20:54 28.98804 -94.48123 396 ft 91 kts 260°
2026-05-04 20:54 28.98740 -94.48813 397 ft 81 kts 240°
2026-05-04 20:55 28.98408 -94.49293 393 ft 77 kts 210°
2026-05-04 20:55 28.97914 -94.49452 400 ft 72 kts 182°
2026-05-04 20:55 28.97434 -94.49483 398 ft 68 kts 184°
2026-05-04 20:55 28.96964 -94.49515 395 ft 68 kts 184°
2026-05-04 20:56 28.96468 -94.49535 395 ft 73 kts 182°
2026-05-04 20:56 28.95964 -94.49545 405 ft 71 kts 182°
2026-05-04 20:56 28.95484 -94.49558 398 ft 71 kts 181°
2026-05-04 20:56 28.94980 -94.49568 390 ft 75 kts 180°
2026-05-04 20:57 28.94465 -94.49568 400 ft 71 kts 178°
2026-05-04 20:57 28.93978 -94.49567 393 ft 70 kts 179°
2026-05-04 20:57 28.93465 -94.49559 392 ft 77 kts 180°
2026-05-04 20:57 28.92937 -94.49551 397 ft 73 kts 178°
2026-05-04 20:58 28.92454 -94.49547 395 ft 69 kts 179°
2026-05-04 20:58 28.91966 -94.49540 399 ft 72 kts 180°
2026-05-04 20:58 28.91449 -94.49538 400 ft 76 kts 181°
2026-05-04 20:58 28.90931 -94.49528 388 ft 79 kts 174°
2026-05-04 20:59 28.90457 -94.49234 398 ft 77 kts 137°
2026-05-04 20:59 28.90251 -94.48666 397 ft 80 kts 107°
2026-05-04 20:59 28.90205 -94.48041 395 ft 79 kts 102°
2026-05-04 20:59 28.90195 -94.47393 394 ft 84 kts 97°
2026-05-04 21:00 28.90199 -94.46733 405 ft 82 kts 100°
2026-05-04 21:00 28.90200 -94.46088 399 ft 82 kts 98°
2026-05-04 21:00 28.90199 -94.45442 399 ft 82 kts 100°
2026-05-04 21:00 28.90200 -94.44797 391 ft 80 kts 103°
2026-05-04 21:01 28.90206 -94.44157 395 ft 81 kts 101°
2026-05-04 21:01 28.90214 -94.43531 394 ft 76 kts 103°
2026-05-04 21:01 28.90221 -94.42913 393 ft 81 kts 99°
2026-05-04 21:01 28.90222 -94.42261 395 ft 82 kts 99°
2026-05-04 21:02 28.90220 -94.41607 396 ft 84 kts 98°
2026-05-04 21:02 28.90217 -94.40948 399 ft 79 kts 103°
2026-05-04 21:02 28.90217 -94.40331 395 ft 77 kts 104°
2026-05-04 21:02 28.90218 -94.39711 393 ft 81 kts 99°
2026-05-04 21:03 28.90463 -94.39082 394 ft 93 kts 57°
2026-05-04 21:03 28.91039 -94.38716 402 ft 97 kts 20°
2026-05-04 21:03 28.91714 -94.38606 394 ft 97 kts
2026-05-04 21:03 28.92368 -94.38618 392 ft 97 kts 357°
2026-05-04 21:04 28.93061 -94.38671 396 ft 100 kts 359°
2026-05-04 21:04 28.93743 -94.38721 393 ft 97 kts 359°
2026-05-04 21:04 28.94421 -94.38764 390 ft 100 kts
2026-05-04 21:04 28.95126 -94.38796 398 ft 100 kts
2026-05-04 21:05 28.95803 -94.38810 396 ft 97 kts
2026-05-04 21:05 28.96494 -94.38812 392 ft 98 kts
2026-05-04 21:05 28.97175 -94.38815 397 ft 96 kts
2026-05-04 21:05 28.97819 -94.38814 389 ft 92 kts
2026-05-04 21:06 28.98489 -94.38816 395 ft 97 kts
2026-05-04 21:06 28.99123 -94.39018 390 ft 94 kts 324°
2026-05-04 21:06 28.99497 -94.39589 390 ft 87 kts 284°
2026-05-04 21:06 28.99555 -94.40254 390 ft 84 kts 266°
2026-05-04 21:07 28.99581 -94.40933 394 ft 86 kts 266°
2026-05-04 21:07 28.99606 -94.41608 395 ft 85 kts 266°
2026-05-04 21:07 28.99626 -94.42281 390 ft 84 kts 264°
2026-05-04 21:07 28.99635 -94.42958 389 ft 87 kts 265°
2026-05-04 21:08 28.99636 -94.43654 390 ft 89 kts 267°
2026-05-04 21:08 28.99638 -94.44356 397 ft 89 kts 267°
2026-05-04 21:08 28.99645 -94.45061 389 ft 89 kts 262°
2026-05-04 21:08 28.99644 -94.45768 389 ft 89 kts 262°
2026-05-04 21:09 28.99638 -94.46484 391 ft 93 kts 260°
2026-05-04 21:09 28.99641 -94.47204 397 ft 87 kts 262°
2026-05-04 21:09 28.99654 -94.47887 389 ft 86 kts 264°
2026-05-04 21:09 28.99661 -94.48570 386 ft 86 kts 264°
2026-05-04 21:10 28.99655 -94.49271 385 ft 92 kts 261°
2026-05-04 21:10 28.99506 -94.49941 389 ft 82 kts 228°
2026-05-04 21:10 28.99095 -94.50333 389 ft 74 kts 200°
2026-05-04 21:10 28.98576 -94.50406 389 ft 75 kts 182°
2026-05-04 21:11 28.98070 -94.50435 391 ft 71 kts 182°
2026-05-04 21:11 28.97592 -94.50464 390 ft 68 kts 183°
2026-05-04 21:11 28.97129 -94.50489 387 ft 69 kts 183°
2026-05-04 21:11 28.96630 -94.50500 388 ft 72 kts 181°
2026-05-04 21:12 28.96131 -94.50505 397 ft 69 kts 181°
2026-05-04 21:12 28.95654 -94.50516 389 ft 70 kts 181°
2026-05-04 21:12 28.95158 -94.50523 385 ft 72 kts 179°
2026-05-04 21:12 28.94675 -94.50524 389 ft 66 kts 177°
2026-05-04 21:13 28.94219 -94.50523 384 ft 66 kts 178°
2026-05-04 21:13 28.93734 -94.50513 385 ft 73 kts 179°
2026-05-04 21:13 28.93232 -94.50504 388 ft 70 kts 177°
2026-05-04 21:13 28.92760 -94.50498 387 ft 67 kts 179°
2026-05-04 21:14 28.92287 -94.50491 389 ft 68 kts 179°
2026-05-04 21:14 28.91797 -94.50489 390 ft 73 kts 179°
2026-05-04 21:14 28.91462 -94.50490 390 ft 71 kts 180°
2026-05-04 21:14 28.90951 -94.50489 387 ft 74 kts 178°
2026-05-04 21:15 28.90442 -94.50485 391 ft 73 kts 179°
2026-05-04 21:15 28.89946 -94.50461 388 ft 73 kts 167°
2026-05-04 21:15 28.89516 -94.50142 389 ft 76 kts 132°
2026-05-04 21:15 28.89325 -94.49581 388 ft 77 kts 106°
2026-05-04 21:16 28.89274 -94.48959 390 ft 80 kts 98°
2026-05-04 21:16 28.89276 -94.48324 389 ft 80 kts 99°
2026-05-04 21:16 28.89295 -94.47682 390 ft 82 kts 94°
2026-05-04 21:16 28.89319 -94.47034 386 ft 81 kts 98°
2026-05-04 21:17 28.89344 -94.46391 382 ft 83 kts 92°
2026-05-04 21:17 28.89366 -94.45729 395 ft 81 kts 98°
2026-05-04 21:17 28.89374 -94.45085 390 ft 81 kts 99°
2026-05-04 21:17 28.89374 -94.44454 391 ft 81 kts 100°
2026-05-04 21:18 28.89370 -94.43815 384 ft 80 kts 102°
2026-05-04 21:18 28.89373 -94.43178 386 ft 81 kts 99°
2026-05-04 21:18 28.89378 -94.42541 387 ft 78 kts 102°
2026-05-04 21:18 28.89385 -94.41928 380 ft 80 kts 98°
2026-05-04 21:19 28.89387 -94.41273 389 ft 83 kts 101°
2026-05-04 21:19 28.89386 -94.40616 389 ft 83 kts 99°
2026-05-04 21:19 28.89382 -94.39957 388 ft 81 kts 103°
2026-05-04 21:19 28.89381 -94.39339 386 ft 76 kts 103°
2026-05-04 21:20 28.89388 -94.38723 385 ft 81 kts 96°
2026-05-04 21:20 28.89662 -94.38112 386 ft 93 kts 53°
2026-05-04 21:20 28.90247 -94.37779 392 ft 96 kts 19°
2026-05-04 21:20 28.90929 -94.37678 386 ft 99 kts
2026-05-04 21:21 28.91603 -94.37687 384 ft 98 kts 358°
2026-05-04 21:21 28.92294 -94.37733 388 ft 99 kts 359°
2026-05-04 21:21 28.92969 -94.37778 384 ft 96 kts 359°
2026-05-04 21:21 28.93640 -94.37816 380 ft 100 kts
2026-05-04 21:22 28.94340 -94.37846 387 ft 102 kts
2026-05-04 21:22 28.95031 -94.37861 390 ft 98 kts
2026-05-04 21:22 28.95719 -94.37862 385 ft 97 kts
2026-05-04 21:22 28.96390 -94.37864 385 ft 96 kts
2026-05-04 21:23 28.97032 -94.37862 380 ft 92 kts
2026-05-04 21:23 28.97709 -94.37865 386 ft 100 kts
2026-05-04 21:23 28.98385 -94.37864 384 ft 95 kts
2026-05-04 21:23 28.99040 -94.37864 382 ft 94 kts
2026-05-04 21:24 28.99696 -94.37935 378 ft 97 kts 342°
2026-05-04 21:24 29.00211 -94.38391 383 ft 92 kts 303°
2026-05-04 21:24 29.00367 -94.39069 382 ft 88 kts 268°
2026-05-04 21:24 29.00389 -94.39758 385 ft 86 kts 265°
2026-05-04 21:25 29.00414 -94.40444 386 ft 86 kts 266°
2026-05-04 21:25 29.00437 -94.41117 387 ft 83 kts 265°
2026-05-04 21:25 29.00453 -94.41781 385 ft 83 kts 266°
2026-05-04 21:25 29.00463 -94.42443 384 ft 84 kts 266°
2026-05-04 21:26 29.00466 -94.43131 388 ft 88 kts 266°
2026-05-04 21:26 29.00472 -94.43816 389 ft 87 kts 264°
2026-05-04 21:26 29.00480 -94.44514 382 ft 86 kts 265°
2026-05-04 21:26 29.00482 -94.45198 382 ft 87 kts 266°
2026-05-04 21:27 29.00480 -94.45901 383 ft 90 kts 268°
2026-05-04 21:27 29.00481 -94.46612 389 ft 89 kts 269°
2026-05-04 21:27 29.00485 -94.47307 378 ft 89 kts 262°
2026-05-04 21:27 29.00481 -94.48016 382 ft 89 kts 263°
2026-05-04 21:28 29.00474 -94.48746 386 ft 93 kts 263°
2026-05-04 21:28 29.00478 -94.49455 392 ft 87 kts 262°
2026-05-04 21:28 29.00491 -94.50138 384 ft 86 kts 265°
2026-05-04 21:28 29.00399 -94.50794 377 ft 82 kts 239°
2026-05-04 21:29 29.00019 -94.51247 383 ft 76 kts 200°
2026-05-04 21:29 28.99547 -94.51367 379 ft 68 kts 181°
2026-05-04 21:29 28.99065 -94.51386 378 ft 73 kts 181°
2026-05-04 21:29 28.98553 -94.51405 385 ft 73 kts 180°
2026-05-04 21:30 28.98040 -94.51424 387 ft 72 kts 181°
2026-05-04 21:30 28.97553 -94.51442 389 ft 68 kts 182°
2026-05-04 21:30 28.97067 -94.51456 376 ft 73 kts 182°
2026-05-04 21:30 28.96559 -94.51459 384 ft 72 kts 181°
2026-05-04 21:31 28.95589 -94.51475 379 ft 71 kts 180°
2026-05-04 21:31 28.95089 -94.51476 382 ft 70 kts 178°
2026-05-04 21:31 28.94625 -94.51478 377 ft 66 kts 176°
2026-05-04 21:32 28.94158 -94.51471 375 ft 71 kts 178°
2026-05-04 21:32 28.93650 -94.51459 381 ft 74 kts 179°
2026-05-04 21:32 28.93144 -94.51450 379 ft 70 kts 178°
2026-05-04 21:32 28.92651 -94.51443 378 ft 71 kts 179°
2026-05-04 21:33 28.92143 -94.51438 383 ft 75 kts 179°
2026-05-04 21:33 28.91628 -94.51442 380 ft 72 kts 181°
2026-05-04 21:33 28.91115 -94.51441 380 ft 74 kts 178°
2026-05-04 21:33 28.90592 -94.51437 385 ft 76 kts 180°
2026-05-04 21:34 28.90064 -94.51439 380 ft 78 kts 179°
2026-05-04 21:34 28.89503 -94.51440 383 ft 81 kts 178°
2026-05-04 21:34 28.88994 -94.51320 383 ft 72 kts 153°
2026-05-04 21:34 28.88655 -94.50885 379 ft 79 kts 121°
2026-05-04 21:35 28.88551 -94.50268 383 ft 77 kts 105°
2026-05-04 21:35 28.88517 -94.49653 375 ft 80 kts 101°
2026-05-04 21:35 28.88507 -94.49025 378 ft 78 kts 96°
2026-05-04 21:35 28.88509 -94.48407 377 ft 78 kts 96°
2026-05-04 21:36 28.88514 -94.47778 379 ft 80 kts 98°
2026-05-04 21:36 28.88519 -94.47148 379 ft 79 kts 100°
2026-05-04 21:36 28.88521 -94.46519 374 ft 80 kts 96°
2026-05-04 21:36 28.88528 -94.45884 374 ft 79 kts 99°
2026-05-04 21:37 28.88538 -94.45237 374 ft 84 kts 95°
2026-05-04 21:37 28.88547 -94.44579 387 ft 82 kts 98°
2026-05-04 21:37 28.88545 -94.43936 382 ft 80 kts 99°
2026-05-04 21:37 28.88540 -94.43309 383 ft 80 kts 101°
2026-05-04 21:38 28.88535 -94.42680 375 ft 78 kts 104°
2026-05-04 21:38 28.88537 -94.42054 379 ft 80 kts 102°
2026-05-04 21:38 28.88541 -94.41420 380 ft 78 kts 103°
2026-05-04 21:38 28.88547 -94.40798 376 ft 81 kts 98°
2026-05-04 21:39 28.88549 -94.40143 383 ft 82 kts 98°
2026-05-04 21:39 28.88548 -94.39487 382 ft 82 kts 100°
2026-05-04 21:39 28.88544 -94.38838 382 ft 80 kts 104°
2026-05-04 21:39 28.88543 -94.38230 378 ft 75 kts 105°
2026-05-04 21:40 28.88578 -94.37625 376 ft 83 kts 89°
2026-05-04 21:40 28.88932 -94.37054 378 ft 94 kts 45°
2026-05-04 21:40 28.89547 -94.36790 384 ft 96 kts 15°
2026-05-04 21:40 28.90222 -94.36722 376 ft 97 kts
2026-05-04 21:41 28.90894 -94.36745 376 ft 99 kts 358°
2026-05-04 21:41 28.91594 -94.36794 379 ft 102 kts 360°
2026-05-04 21:41 28.92276 -94.36837 376 ft 96 kts
2026-05-04 21:41 28.92945 -94.36871 373 ft 98 kts
2026-05-04 21:42 28.93645 -94.36898 380 ft 102 kts
2026-05-04 21:42 28.94334 -94.36911 382 ft 99 kts
2026-05-04 21:42 28.95037 -94.36912 379 ft 99 kts
2026-05-04 21:42 28.95715 -94.36913 383 ft 95 kts
2026-05-04 21:43 28.96352 -94.36910 373 ft 91 kts
2026-05-04 21:43 28.97019 -94.36912 378 ft 99 kts
2026-05-04 21:43 28.97693 -94.36912 374 ft 96 kts
2026-05-04 21:43 28.98353 -94.36912 375 ft 95 kts
2026-05-04 21:44 28.99016 -94.36914 372 ft 96 kts
2026-05-04 21:44 28.99664 -94.36918 373 ft 94 kts
2026-05-04 21:44 29.00339 -94.36922 377 ft 98 kts
2026-05-04 21:44 29.00990 -94.36976 377 ft 91 kts 342°
2026-05-04 21:45 29.01506 -94.37369 372 ft 90 kts 310°
2026-05-04 21:45 29.01942 -94.37905 374 ft 93 kts 306°
2026-05-04 21:45 29.02374 -94.38445 379 ft 91 kts 308°
2026-05-04 21:45 29.02806 -94.38987 377 ft 93 kts 310°
2026-05-04 21:46 29.03249 -94.39570 507 ft 108 kts 305°
2026-05-04 21:46 29.03782 -94.40352 621 ft 139 kts 304°
2026-05-04 21:46 29.04423 -94.41279 687 ft 152 kts 308°
2026-05-04 21:46 29.05103 -94.42179 711 ft 148 kts 311°
2026-05-04 21:47 29.05788 -94.43045 709 ft 148 kts 312°
2026-05-04 21:47 29.06470 -94.43915 724 ft 149 kts 309°
2026-05-04 21:47 29.07163 -94.44805 734 ft 145 kts 310°
2026-05-04 21:47 29.07822 -94.45652 730 ft 145 kts 309°
2026-05-04 21:48 29.08494 -94.46533 736 ft 148 kts 307°
2026-05-04 21:48 29.09174 -94.47422 735 ft 145 kts 309°
2026-05-04 21:48 29.09842 -94.48300 729 ft 150 kts 309°
2026-05-04 21:48 29.10517 -94.49198 737 ft 150 kts 308°
2026-05-04 21:49 29.11212 -94.50113 734 ft 152 kts 309°
2026-05-04 21:49 29.11897 -94.51011 735 ft 151 kts 309°
2026-05-04 21:49 29.12579 -94.51898 735 ft 146 kts 309°
2026-05-04 21:49 29.13254 -94.52778 733 ft 148 kts 309°
2026-05-04 21:50 29.13931 -94.53671 729 ft 150 kts 307°
2026-05-04 21:50 29.14623 -94.54594 735 ft 153 kts 308°
2026-05-04 21:50 29.15320 -94.55515 730 ft 154 kts 307°
2026-05-04 21:50 29.16033 -94.56462 733 ft 158 kts 308°
2026-05-04 21:51 29.16749 -94.57404 745 ft 154 kts 311°
2026-05-04 21:51 29.17455 -94.58320 739 ft 154 kts 307°
2026-05-04 21:51 29.18152 -94.59235 742 ft 151 kts 307°
2026-05-04 21:51 29.18841 -94.60139 742 ft 151 kts 308°
2026-05-04 21:52 29.19539 -94.61061 738 ft 155 kts 307°
2026-05-04 21:52 29.20242 -94.61992 741 ft 153 kts 308°
2026-05-04 21:52 29.20938 -94.62909 740 ft 152 kts 307°
2026-05-04 21:52 29.21626 -94.63811 739 ft 149 kts 308°
2026-05-04 21:53 29.22309 -94.64712 738 ft 150 kts 308°
2026-05-04 21:53 29.22992 -94.65620 736 ft 152 kts 308°
2026-05-04 21:53 29.23676 -94.66531 738 ft 151 kts 308°
2026-05-04 21:53 29.24351 -94.67424 742 ft 149 kts 309°
2026-05-04 21:54 29.25041 -94.68334 737 ft 153 kts 308°
2026-05-04 21:54 29.25736 -94.69253 746 ft 153 kts 308°
2026-05-04 21:54 29.26434 -94.70181 752 ft 154 kts 308°
2026-05-04 21:54 29.27136 -94.71106 756 ft 153 kts 308°
2026-05-04 21:55 29.27831 -94.72036 751 ft 154 kts 307°
2026-05-04 21:55 29.28527 -94.72977 755 ft 155 kts 308°
2026-05-04 21:55 29.29219 -94.73902 753 ft 152 kts 308°
2026-05-04 21:55 29.29918 -94.74837 754 ft 155 kts 307°
2026-05-04 21:56 29.30621 -94.75774 761 ft 155 kts 307°
2026-05-04 21:56 29.31326 -94.76704 760 ft 155 kts 307°
2026-05-04 21:56 29.32037 -94.77638 757 ft 157 kts 306°
2026-05-04 21:56 29.32753 -94.78582 761 ft 156 kts 308°
2026-05-04 21:57 29.33453 -94.79495 758 ft 151 kts 308°
2026-05-04 21:57 29.34143 -94.80407 753 ft 152 kts 309°
2026-05-04 21:57 29.34828 -94.81320 754 ft 151 kts 309°
2026-05-04 21:57 29.35509 -94.82230 757 ft 150 kts 308°
2026-05-04 21:58 29.36187 -94.83132 754 ft 150 kts 308°
2026-05-04 21:58 29.36877 -94.84060 754 ft 156 kts 306°
2026-05-04 21:58 29.37576 -94.84993 762 ft 156 kts 306°
2026-05-04 21:58 29.38278 -94.85913 761 ft 151 kts 306°
2026-05-04 21:59 29.38970 -94.86822 753 ft 153 kts 306°
2026-05-04 21:59 29.39669 -94.87756 758 ft 155 kts 308°
2026-05-04 21:59 29.40371 -94.88681 759 ft 151 kts 309°
2026-05-04 21:59 29.41053 -94.89571 763 ft 146 kts 307°
2026-05-04 22:00 29.41727 -94.90445 754 ft 147 kts 308°
2026-05-04 22:00 29.42406 -94.91343 750 ft 150 kts 307°
2026-05-04 22:00 29.43079 -94.92238 747 ft 146 kts 307°
2026-05-04 22:00 29.43735 -94.93116 750 ft 144 kts 308°
2026-05-04 22:01 29.44388 -94.93994 745 ft 148 kts 309°
2026-05-04 22:01 29.45055 -94.94894 744 ft 152 kts 308°
2026-05-04 22:01 29.45754 -94.95830 757 ft 155 kts 309°
2026-05-04 22:01 29.46457 -94.96754 747 ft 153 kts 310°
2026-05-04 22:02 29.47151 -94.97666 736 ft 153 kts 308°
2026-05-04 22:02 29.47848 -94.98593 740 ft 153 kts 311°
2026-05-04 22:02 29.48545 -94.99520 727 ft 154 kts 311°
2026-05-04 22:02 29.49237 -95.00449 726 ft 153 kts 311°
2026-05-04 22:03 29.49709 -95.01087 729 ft 156 kts 310°
2026-05-04 22:03 29.50398 -95.02009 739 ft 149 kts 311°
2026-05-04 22:03 29.51076 -95.02905 725 ft 150 kts 308°
2026-05-04 22:03 29.51766 -95.03838 716 ft 157 kts 308°
2026-05-04 22:04 29.52475 -95.04797 731 ft 157 kts 309°
2026-05-04 22:04 29.53185 -95.05741 749 ft 154 kts 309°
2026-05-04 22:04 29.53883 -95.06644 644 ft 144 kts 308°
2026-05-04 22:04 29.54499 -95.07410 586 ft 120 kts 307°
2026-05-04 22:05 29.55059 -95.08131 547 ft 124 kts 305°
2026-05-04 22:05 29.55614 -95.08881 547 ft 122 kts 305°
2026-05-04 22:05 29.56154 -95.09614 543 ft 119 kts 305°
2026-05-04 22:05 29.56677 -95.10327 543 ft 114 kts 304°
2026-05-04 22:06 29.57179 -95.11004 543 ft 110 kts 304°
2026-05-04 22:06 29.57681 -95.11669 545 ft 111 kts 304°
2026-05-04 22:06 29.58212 -95.12302 545 ft 115 kts 319°
2026-05-04 22:06 29.58957 -95.12682 543 ft 119 kts 335°
2026-05-04 22:07 29.59739 -95.12984 551 ft 116 kts 345°
2026-05-04 22:07 29.60505 -95.13222 552 ft 109 kts 350°
2026-05-04 22:07 29.61190 -95.13377 544 ft 96 kts 354°
2026-05-04 22:07 29.61900 -95.13475 514 ft 109 kts 353°
2026-05-04 22:08 29.62671 -95.13664 462 ft 118 kts 335°
2026-05-04 22:08 29.63355 -95.14205 437 ft 122 kts 310°
2026-05-04 22:08 29.63653 -95.15048 441 ft 111 kts 264°
2026-05-04 22:08 29.63318 -95.15724 529 ft 90 kts 220°
2026-05-04 22:09 29.62872 -95.16153 440 ft 78 kts 217°
2026-05-04 22:09 29.62475 -95.16501 290 ft 67 kts 211°
2026-05-04 22:09 29.62099 -95.16735 201 ft 56 kts 193°
2026-05-04 22:09 29.61750 -95.16795 154 ft 46 kts 184°
2026-05-04 22:10 29.61469 -95.16818 118 ft 35 kts 182°
2026-05-04 22:10 29.61257 -95.16828 87 ft 25 kts 185°
2026-05-04 22:10 29.61138 -95.16827 53 ft 10 kts 190°
2026-05-04 22:10 29.61093 -95.16828 42 ft 5 kts 190°
2026-05-04 22:11 29.61066 -95.16826 40 ft 3 kts 190°
2026-05-04 22:11 29.61062 -95.16826 38 ft 0 kts 191°